sensor_id;sensor_type;location;lat;lon;timestamp;P1;durP1;ratioP1;P2;durP2;ratioP2
7150;SDS011;3617;48.836;9.172;2023-02-01T00:01:11;3.70;;;2.90;;
7150;SDS011;3617;48.836;9.172;2023-02-01T00:03:37;4.07;;;2.97;;
7150;SDS011;3617;48.836;9.172;2023-02-01T00:06:03;3.27;;;2.63;;
7150;SDS011;3617;48.836;9.172;2023-02-01T00:08:29;4.23;;;2.53;;
7150;SDS011;3617;48.836;9.172;2023-02-01T00:11:05;4.90;;;2.47;;
7150;SDS011;3617;48.836;9.172;2023-02-01T00:13:32;6.03;;;2.60;;
7150;SDS011;3617;48.836;9.172;2023-02-01T00:16:06;2.97;;;2.40;;
7150;SDS011;3617;48.836;9.172;2023-02-01T00:18:32;2.90;;;2.20;;
7150;SDS011;3617;48.836;9.172;2023-02-01T00:20:58;2.50;;;2.10;;
7150;SDS011;3617;48.836;9.172;2023-02-01T00:23:25;3.37;;;2.33;;
7150;SDS011;3617;48.836;9.172;2023-02-01T00:25:51;2.43;;;1.90;;
7150;SDS011;3617;48.836;9.172;2023-02-01T00:28:17;2.90;;;2.23;;
7150;SDS011;3617;48.836;9.172;2023-02-01T00:30:43;2.73;;;2.20;;
7150;SDS011;3617;48.836;9.172;2023-02-01T00:33:09;3.63;;;2.10;;
7150;SDS011;3617;48.836;9.172;2023-02-01T00:35:35;5.73;;;2.30;;
7150;SDS011;3617;48.836;9.172;2023-02-01T00:38:01;2.17;;;1.80;;
7150;SDS011;3617;48.836;9.172;2023-02-01T00:40:27;2.00;;;1.70;;
7150;SDS011;3617;48.836;9.172;2023-02-01T00:42:53;3.00;;;2.10;;
7150;SDS011;3617;48.836;9.172;2023-02-01T00:45:19;2.27;;;1.90;;
7150;SDS011;3617;48.836;9.172;2023-02-01T00:47:45;2.73;;;2.00;;
7150;SDS011;3617;48.836;9.172;2023-02-01T00:50:11;2.13;;;1.80;;
7150;SDS011;3617;48.836;9.172;2023-02-01T00:52:37;2.23;;;2.00;;
7150;SDS011;3617;48.836;9.172;2023-02-01T00:55:03;3.03;;;2.30;;
7150;SDS011;3617;48.836;9.172;2023-02-01T00:57:30;2.80;;;2.20;;
7150;SDS011;3617;48.836;9.172;2023-02-01T00:59:56;3.60;;;2.30;;
7150;SDS011;3617;48.836;9.172;2023-02-01T01:02:22;2.47;;;1.80;;
7150;SDS011;3617;48.836;9.172;2023-02-01T01:04:48;4.00;;;2.37;;
7150;SDS011;3617;48.836;9.172;2023-02-01T01:07:14;2.27;;;1.90;;
7150;SDS011;3617;48.836;9.172;2023-02-01T01:09:40;1.93;;;1.73;;
7150;SDS011;3617;48.836;9.172;2023-02-01T01:12:06;1.87;;;1.53;;
7150;SDS011;3617;48.836;9.172;2023-02-01T01:14:32;2.67;;;1.83;;
7150;SDS011;3617;48.836;9.172;2023-02-01T01:16:58;3.27;;;2.07;;
7150;SDS011;3617;48.836;9.172;2023-02-01T01:19:24;2.00;;;1.80;;
7150;SDS011;3617;48.836;9.172;2023-02-01T01:21:50;2.53;;;2.27;;
7150;SDS011;3617;48.836;9.172;2023-02-01T01:24:16;2.23;;;1.90;;
7150;SDS011;3617;48.836;9.172;2023-02-01T01:26:42;2.10;;;1.80;;
7150;SDS011;3617;48.836;9.172;2023-02-01T01:29:08;1.90;;;1.70;;
7150;SDS011;3617;48.836;9.172;2023-02-01T01:31:35;2.77;;;1.80;;
7150;SDS011;3617;48.836;9.172;2023-02-01T01:34:02;2.40;;;2.03;;
7150;SDS011;3617;48.836;9.172;2023-02-01T01:36:28;1.80;;;1.67;;
7150;SDS011;3617;48.836;9.172;2023-02-01T01:38:54;2.83;;;1.90;;
7150;SDS011;3617;48.836;9.172;2023-02-01T01:41:21;2.13;;;1.93;;
7150;SDS011;3617;48.836;9.172;2023-02-01T01:46:27;3.27;;;1.93;;
7150;SDS011;3617;48.836;9.172;2023-02-01T01:51:50;2.30;;;2.10;;
7150;SDS011;3617;48.836;9.172;2023-02-01T01:54:18;2.23;;;1.90;;
7150;SDS011;3617;48.836;9.172;2023-02-01T01:56:46;1.70;;;1.60;;
7150;SDS011;3617;48.836;9.172;2023-02-01T01:59:15;2.60;;;1.80;;
7150;SDS011;3617;48.836;9.172;2023-02-01T02:01:41;2.27;;;1.80;;
7150;SDS011;3617;48.836;9.172;2023-02-01T02:04:07;3.37;;;1.93;;
7150;SDS011;3617;48.836;9.172;2023-02-01T02:06:44;2.27;;;1.57;;
7150;SDS011;3617;48.836;9.172;2023-02-01T02:09:13;3.40;;;1.70;;
7150;SDS011;3617;48.836;9.172;2023-02-01T02:11:39;2.27;;;1.57;;
7150;SDS011;3617;48.836;9.172;2023-02-01T02:14:06;1.90;;;1.70;;
7150;SDS011;3617;48.836;9.172;2023-02-01T02:16:41;2.40;;;1.70;;
7150;SDS011;3617;48.836;9.172;2023-02-01T02:21:56;1.73;;;1.50;;
7150;SDS011;3617;48.836;9.172;2023-02-01T02:24:34;1.90;;;1.70;;
7150;SDS011;3617;48.836;9.172;2023-02-01T02:27:09;2.33;;;1.70;;
7150;SDS011;3617;48.836;9.172;2023-02-01T02:30:04;3.17;;;1.90;;
7150;SDS011;3617;48.836;9.172;2023-02-01T02:32:42;1.80;;;1.67;;
7150;SDS011;3617;48.836;9.172;2023-02-01T02:35:26;2.30;;;1.90;;
7150;SDS011;3617;48.836;9.172;2023-02-01T02:40:32;3.00;;;1.50;;
7150;SDS011;3617;48.836;9.172;2023-02-01T02:43:08;1.83;;;1.70;;
7150;SDS011;3617;48.836;9.172;2023-02-01T02:46:20;1.97;;;1.63;;
7150;SDS011;3617;48.836;9.172;2023-02-01T02:51:32;2.10;;;1.80;;
7150;SDS011;3617;48.836;9.172;2023-02-01T02:54:23;2.93;;;1.90;;
7150;SDS011;3617;48.836;9.172;2023-02-01T02:57:09;2.17;;;1.90;;
7150;SDS011;3617;48.836;9.172;2023-02-01T02:59:57;1.80;;;1.70;;
7150;SDS011;3617;48.836;9.172;2023-02-01T03:02:42;1.83;;;1.70;;
7150;SDS011;3617;48.836;9.172;2023-02-01T03:05:31;2.10;;;1.83;;
7150;SDS011;3617;48.836;9.172;2023-02-01T03:08:09;2.13;;;1.90;;
7150;SDS011;3617;48.836;9.172;2023-02-01T03:13:03;2.17;;;1.97;;
7150;SDS011;3617;48.836;9.172;2023-02-01T03:18:00;3.80;;;2.17;;
7150;SDS011;3617;48.836;9.172;2023-02-01T03:20:27;3.87;;;1.93;;
7150;SDS011;3617;48.836;9.172;2023-02-01T03:22:53;3.90;;;2.10;;
7150;SDS011;3617;48.836;9.172;2023-02-01T03:25:24;2.20;;;2.00;;
7150;SDS011;3617;48.836;9.172;2023-02-01T03:28:01;2.20;;;1.90;;
7150;SDS011;3617;48.836;9.172;2023-02-01T03:30:29;2.37;;;2.00;;
7150;SDS011;3617;48.836;9.172;2023-02-01T03:32:57;2.93;;;2.50;;
7150;SDS011;3617;48.836;9.172;2023-02-01T03:41:06;2.63;;;2.20;;
7150;SDS011;3617;48.836;9.172;2023-02-01T03:43:36;2.87;;;2.33;;
7150;SDS011;3617;48.836;9.172;2023-02-01T03:46:05;1.90;;;1.67;;
7150;SDS011;3617;48.836;9.172;2023-02-01T03:48:33;2.17;;;1.97;;
7150;SDS011;3617;48.836;9.172;2023-02-01T03:51:00;2.40;;;2.10;;
7150;SDS011;3617;48.836;9.172;2023-02-01T03:53:28;3.20;;;1.90;;
7150;SDS011;3617;48.836;9.172;2023-02-01T03:55:55;3.07;;;2.03;;
7150;SDS011;3617;48.836;9.172;2023-02-01T03:58:22;2.63;;;1.90;;
7150;SDS011;3617;48.836;9.172;2023-02-01T04:00:58;1.80;;;1.70;;
7150;SDS011;3617;48.836;9.172;2023-02-01T04:03:25;2.80;;;2.00;;
7150;SDS011;3617;48.836;9.172;2023-02-01T04:05:51;2.43;;;2.03;;
7150;SDS011;3617;48.836;9.172;2023-02-01T04:08:18;2.23;;;1.80;;
7150;SDS011;3617;48.836;9.172;2023-02-01T04:10:44;2.33;;;1.70;;
7150;SDS011;3617;48.836;9.172;2023-02-01T04:13:10;2.30;;;1.80;;
7150;SDS011;3617;48.836;9.172;2023-02-01T04:15:36;2.23;;;1.83;;
7150;SDS011;3617;48.836;9.172;2023-02-01T04:18:03;2.17;;;1.90;;
7150;SDS011;3617;48.836;9.172;2023-02-01T04:20:29;2.20;;;1.80;;
7150;SDS011;3617;48.836;9.172;2023-02-01T04:22:55;2.53;;;2.00;;
7150;SDS011;3617;48.836;9.172;2023-02-01T04:25:21;2.13;;;1.87;;
7150;SDS011;3617;48.836;9.172;2023-02-01T04:27:47;2.37;;;2.17;;
7150;SDS011;3617;48.836;9.172;2023-02-01T04:30:13;3.63;;;2.10;;
7150;SDS011;3617;48.836;9.172;2023-02-01T04:32:39;2.00;;;1.80;;
7150;SDS011;3617;48.836;9.172;2023-02-01T04:35:06;3.43;;;1.50;;
7150;SDS011;3617;48.836;9.172;2023-02-01T04:37:32;2.27;;;1.70;;
7150;SDS011;3617;48.836;9.172;2023-02-01T04:39:58;1.60;;;1.50;;
7150;SDS011;3617;48.836;9.172;2023-02-01T04:42:24;1.97;;;1.70;;
7150;SDS011;3617;48.836;9.172;2023-02-01T04:44:50;2.00;;;1.80;;
7150;SDS011;3617;48.836;9.172;2023-02-01T04:47:16;1.93;;;1.70;;
7150;SDS011;3617;48.836;9.172;2023-02-01T04:49:42;2.17;;;1.83;;
7150;SDS011;3617;48.836;9.172;2023-02-01T04:52:08;1.90;;;1.70;;
7150;SDS011;3617;48.836;9.172;2023-02-01T04:54:34;2.00;;;1.80;;
7150;SDS011;3617;48.836;9.172;2023-02-01T04:57:00;3.80;;;2.00;;
7150;SDS011;3617;48.836;9.172;2023-02-01T04:59:26;1.90;;;1.77;;
7150;SDS011;3617;48.836;9.172;2023-02-01T05:01:53;1.90;;;1.70;;
7150;SDS011;3617;48.836;9.172;2023-02-01T05:04:19;2.10;;;1.77;;
7150;SDS011;3617;48.836;9.172;2023-02-01T05:06:45;1.80;;;1.70;;
7150;SDS011;3617;48.836;9.172;2023-02-01T05:09:11;2.10;;;1.90;;
7150;SDS011;3617;48.836;9.172;2023-02-01T05:11:37;2.03;;;1.53;;
7150;SDS011;3617;48.836;9.172;2023-02-01T05:14:22;2.47;;;1.57;;
7150;SDS011;3617;48.836;9.172;2023-02-01T05:16:48;2.47;;;1.60;;
7150;SDS011;3617;48.836;9.172;2023-02-01T05:19:14;1.83;;;1.70;;
7150;SDS011;3617;48.836;9.172;2023-02-01T05:21:40;2.70;;;1.87;;
7150;SDS011;3617;48.836;9.172;2023-02-01T05:24:07;2.13;;;1.60;;
7150;SDS011;3617;48.836;9.172;2023-02-01T05:26:44;2.37;;;1.90;;
7150;SDS011;3617;48.836;9.172;2023-02-01T05:29:11;2.43;;;2.10;;
7150;SDS011;3617;48.836;9.172;2023-02-01T05:31:37;2.27;;;1.83;;
7150;SDS011;3617;48.836;9.172;2023-02-01T05:34:03;1.90;;;1.80;;
7150;SDS011;3617;48.836;9.172;2023-02-01T05:36:29;2.10;;;1.63;;
7150;SDS011;3617;48.836;9.172;2023-02-01T05:38:56;2.83;;;2.00;;
7150;SDS011;3617;48.836;9.172;2023-02-01T05:41:22;2.67;;;2.40;;
7150;SDS011;3617;48.836;9.172;2023-02-01T05:43:48;3.20;;;1.87;;
7150;SDS011;3617;48.836;9.172;2023-02-01T05:46:14;2.33;;;2.10;;
7150;SDS011;3617;48.836;9.172;2023-02-01T05:48:40;2.30;;;2.00;;
7150;SDS011;3617;48.836;9.172;2023-02-01T05:51:06;2.53;;;1.70;;
7150;SDS011;3617;48.836;9.172;2023-02-01T05:53:32;1.73;;;1.63;;
7150;SDS011;3617;48.836;9.172;2023-02-01T05:55:58;4.03;;;1.80;;
7150;SDS011;3617;48.836;9.172;2023-02-01T05:58:24;5.23;;;1.90;;
7150;SDS011;3617;48.836;9.172;2023-02-01T06:00:50;2.20;;;1.90;;
7150;SDS011;3617;48.836;9.172;2023-02-01T06:03:16;3.57;;;2.00;;
7150;SDS011;3617;48.836;9.172;2023-02-01T06:05:46;2.57;;;1.70;;
7150;SDS011;3617;48.836;9.172;2023-02-01T06:08:12;2.60;;;1.80;;
7150;SDS011;3617;48.836;9.172;2023-02-01T06:10:38;2.83;;;1.87;;
7150;SDS011;3617;48.836;9.172;2023-02-01T06:13:04;2.33;;;1.80;;
7150;SDS011;3617;48.836;9.172;2023-02-01T06:15:30;2.97;;;1.90;;
7150;SDS011;3617;48.836;9.172;2023-02-01T06:17:57;2.30;;;1.70;;
7150;SDS011;3617;48.836;9.172;2023-02-01T06:20:23;1.70;;;1.60;;
7150;SDS011;3617;48.836;9.172;2023-02-01T06:22:49;4.13;;;1.77;;
7150;SDS011;3617;48.836;9.172;2023-02-01T06:25:15;3.40;;;1.90;;
7150;SDS011;3617;48.836;9.172;2023-02-01T06:27:42;2.50;;;1.80;;
7150;SDS011;3617;48.836;9.172;2023-02-01T06:30:10;1.90;;;1.70;;
7150;SDS011;3617;48.836;9.172;2023-02-01T06:32:38;4.23;;;2.00;;
7150;SDS011;3617;48.836;9.172;2023-02-01T06:35:05;2.10;;;1.80;;
7150;SDS011;3617;48.836;9.172;2023-02-01T06:37:32;4.37;;;2.07;;
7150;SDS011;3617;48.836;9.172;2023-02-01T06:39:59;2.57;;;2.00;;
7150;SDS011;3617;48.836;9.172;2023-02-01T06:42:25;2.27;;;1.80;;
7150;SDS011;3617;48.836;9.172;2023-02-01T06:44:51;3.70;;;2.40;;
7150;SDS011;3617;48.836;9.172;2023-02-01T06:47:17;2.80;;;2.30;;
7150;SDS011;3617;48.836;9.172;2023-02-01T06:49:43;4.43;;;2.40;;
7150;SDS011;3617;48.836;9.172;2023-02-01T06:52:09;3.00;;;2.40;;
7150;SDS011;3617;48.836;9.172;2023-02-01T06:54:35;3.80;;;2.70;;
7150;SDS011;3617;48.836;9.172;2023-02-01T06:57:02;4.57;;;3.00;;
7150;SDS011;3617;48.836;9.172;2023-02-01T06:59:28;3.73;;;2.97;;
7150;SDS011;3617;48.836;9.172;2023-02-01T07:01:54;4.27;;;2.67;;
7150;SDS011;3617;48.836;9.172;2023-02-01T07:04:20;4.93;;;2.73;;
7150;SDS011;3617;48.836;9.172;2023-02-01T07:06:46;3.50;;;2.47;;
7150;SDS011;3617;48.836;9.172;2023-02-01T07:09:12;6.77;;;2.67;;
7150;SDS011;3617;48.836;9.172;2023-02-01T07:11:38;4.57;;;2.70;;
7150;SDS011;3617;48.836;9.172;2023-02-01T07:14:09;3.20;;;2.60;;
7150;SDS011;3617;48.836;9.172;2023-02-01T07:16:35;3.87;;;2.70;;
7150;SDS011;3617;48.836;9.172;2023-02-01T07:19:01;4.07;;;3.00;;
7150;SDS011;3617;48.836;9.172;2023-02-01T07:21:27;4.13;;;2.83;;
7150;SDS011;3617;48.836;9.172;2023-02-01T07:23:54;4.70;;;2.73;;
7150;SDS011;3617;48.836;9.172;2023-02-01T07:26:20;5.07;;;2.70;;
7150;SDS011;3617;48.836;9.172;2023-02-01T07:28:46;5.90;;;2.80;;
7150;SDS011;3617;48.836;9.172;2023-02-01T07:31:16;6.60;;;3.10;;
7150;SDS011;3617;48.836;9.172;2023-02-01T07:33:47;7.63;;;2.80;;
7150;SDS011;3617;48.836;9.172;2023-02-01T07:36:16;4.87;;;3.00;;
7150;SDS011;3617;48.836;9.172;2023-02-01T07:38:42;4.03;;;2.93;;
7150;SDS011;3617;48.836;9.172;2023-02-01T07:41:08;8.10;;;2.97;;
7150;SDS011;3617;48.836;9.172;2023-02-01T07:43:35;6.83;;;2.77;;
7150;SDS011;3617;48.836;9.172;2023-02-01T07:46:01;4.87;;;2.63;;
7150;SDS011;3617;48.836;9.172;2023-02-01T07:48:28;7.00;;;3.13;;
7150;SDS011;3617;48.836;9.172;2023-02-01T07:51:01;5.00;;;3.00;;
7150;SDS011;3617;48.836;9.172;2023-02-01T07:53:28;7.17;;;3.07;;
7150;SDS011;3617;48.836;9.172;2023-02-01T07:55:54;5.43;;;3.27;;
7150;SDS011;3617;48.836;9.172;2023-02-01T07:58:21;5.60;;;2.87;;
7150;SDS011;3617;48.836;9.172;2023-02-01T08:00:47;6.97;;;3.23;;
7150;SDS011;3617;48.836;9.172;2023-02-01T08:03:32;7.10;;;3.13;;
7150;SDS011;3617;48.836;9.172;2023-02-01T08:05:58;5.83;;;2.60;;
7150;SDS011;3617;48.836;9.172;2023-02-01T08:08:24;6.67;;;3.27;;
7150;SDS011;3617;48.836;9.172;2023-02-01T08:10:50;6.87;;;2.80;;
7150;SDS011;3617;48.836;9.172;2023-02-01T08:13:16;4.27;;;2.80;;
7150;SDS011;3617;48.836;9.172;2023-02-01T08:15:42;3.70;;;2.60;;
7150;SDS011;3617;48.836;9.172;2023-02-01T08:18:08;4.57;;;2.97;;
7150;SDS011;3617;48.836;9.172;2023-02-01T08:20:35;4.20;;;2.57;;
7150;SDS011;3617;48.836;9.172;2023-02-01T08:23:06;7.60;;;2.97;;
7150;SDS011;3617;48.836;9.172;2023-02-01T08:25:33;3.63;;;2.50;;
7150;SDS011;3617;48.836;9.172;2023-02-01T08:28:01;8.37;;;3.40;;
7150;SDS011;3617;48.836;9.172;2023-02-01T08:30:27;4.30;;;2.73;;
7150;SDS011;3617;48.836;9.172;2023-02-01T08:32:53;5.37;;;2.47;;
7150;SDS011;3617;48.836;9.172;2023-02-01T08:35:19;3.87;;;2.40;;
7150;SDS011;3617;48.836;9.172;2023-02-01T08:37:45;7.87;;;2.90;;
7150;SDS011;3617;48.836;9.172;2023-02-01T08:40:11;4.40;;;3.00;;
7150;SDS011;3617;48.836;9.172;2023-02-01T08:42:38;8.27;;;2.83;;
7150;SDS011;3617;48.836;9.172;2023-02-01T08:45:26;6.80;;;2.33;;
7150;SDS011;3617;48.836;9.172;2023-02-01T08:47:53;7.00;;;2.73;;
7150;SDS011;3617;48.836;9.172;2023-02-01T08:50:20;7.93;;;2.87;;
7150;SDS011;3617;48.836;9.172;2023-02-01T08:52:46;4.77;;;2.60;;
7150;SDS011;3617;48.836;9.172;2023-02-01T08:55:12;5.23;;;2.70;;
7150;SDS011;3617;48.836;9.172;2023-02-01T08:57:39;4.67;;;2.30;;
7150;SDS011;3617;48.836;9.172;2023-02-01T09:00:06;5.80;;;2.90;;
7150;SDS011;3617;48.836;9.172;2023-02-01T09:02:33;5.57;;;2.43;;
7150;SDS011;3617;48.836;9.172;2023-02-01T09:04:59;4.50;;;2.00;;
7150;SDS011;3617;48.836;9.172;2023-02-01T09:07:25;5.23;;;2.40;;
7150;SDS011;3617;48.836;9.172;2023-02-01T09:09:51;5.63;;;2.27;;
7150;SDS011;3617;48.836;9.172;2023-02-01T09:12:19;10.63;;;2.30;;
7150;SDS011;3617;48.836;9.172;2023-02-01T09:14:45;5.97;;;2.87;;
7150;SDS011;3617;48.836;9.172;2023-02-01T09:17:11;5.40;;;2.70;;
7150;SDS011;3617;48.836;9.172;2023-02-01T09:19:38;4.20;;;2.30;;
7150;SDS011;3617;48.836;9.172;2023-02-01T09:22:04;6.77;;;2.57;;
7150;SDS011;3617;48.836;9.172;2023-02-01T09:24:30;8.23;;;2.50;;
7150;SDS011;3617;48.836;9.172;2023-02-01T09:26:56;4.30;;;2.20;;
7150;SDS011;3617;48.836;9.172;2023-02-01T09:29:22;8.00;;;2.80;;
7150;SDS011;3617;48.836;9.172;2023-02-01T09:31:48;6.47;;;2.70;;
7150;SDS011;3617;48.836;9.172;2023-02-01T09:34:14;7.00;;;2.50;;
7150;SDS011;3617;48.836;9.172;2023-02-01T09:36:40;4.97;;;2.77;;
7150;SDS011;3617;48.836;9.172;2023-02-01T09:39:06;7.83;;;2.40;;
7150;SDS011;3617;48.836;9.172;2023-02-01T09:44:11;4.93;;;2.53;;
7150;SDS011;3617;48.836;9.172;2023-02-01T09:46:39;8.20;;;2.80;;
7150;SDS011;3617;48.836;9.172;2023-02-01T09:49:08;6.97;;;2.50;;
7150;SDS011;3617;48.836;9.172;2023-02-01T09:51:39;5.40;;;2.53;;
7150;SDS011;3617;48.836;9.172;2023-02-01T09:54:13;8.00;;;2.60;;
7150;SDS011;3617;48.836;9.172;2023-02-01T09:56:42;5.73;;;2.30;;
7150;SDS011;3617;48.836;9.172;2023-02-01T09:59:17;7.73;;;2.43;;
7150;SDS011;3617;48.836;9.172;2023-02-01T10:01:45;7.37;;;2.73;;
7150;SDS011;3617;48.836;9.172;2023-02-01T10:04:12;11.17;;;2.40;;
7150;SDS011;3617;48.836;9.172;2023-02-01T10:06:41;6.80;;;2.17;;
7150;SDS011;3617;48.836;9.172;2023-02-01T10:11:51;8.33;;;2.70;;
7150;SDS011;3617;48.836;9.172;2023-02-01T10:19:41;6.23;;;2.43;;
7150;SDS011;3617;48.836;9.172;2023-02-01T10:22:06;6.17;;;3.07;;
7150;SDS011;3617;48.836;9.172;2023-02-01T10:24:36;9.10;;;2.33;;
7150;SDS011;3617;48.836;9.172;2023-02-01T10:29:36;7.27;;;2.40;;
7150;SDS011;3617;48.836;9.172;2023-02-01T10:32:07;8.30;;;2.43;;
7150;SDS011;3617;48.836;9.172;2023-02-01T10:34:35;11.60;;;2.70;;
7150;SDS011;3617;48.836;9.172;2023-02-01T10:39:34;9.67;;;2.27;;
7150;SDS011;3617;48.836;9.172;2023-02-01T10:42:01;5.93;;;2.43;;
7150;SDS011;3617;48.836;9.172;2023-02-01T10:44:28;6.00;;;2.20;;
7150;SDS011;3617;48.836;9.172;2023-02-01T10:46:55;6.93;;;2.30;;
7150;SDS011;3617;48.836;9.172;2023-02-01T10:54:20;9.37;;;2.50;;
7150;SDS011;3617;48.836;9.172;2023-02-01T10:56:48;7.93;;;2.40;;
7150;SDS011;3617;48.836;9.172;2023-02-01T10:59:16;6.67;;;2.33;;
7150;SDS011;3617;48.836;9.172;2023-02-01T11:01:43;4.37;;;1.80;;
7150;SDS011;3617;48.836;9.172;2023-02-01T11:04:12;10.57;;;2.93;;
7150;SDS011;3617;48.836;9.172;2023-02-01T11:06:40;8.70;;;2.17;;
7150;SDS011;3617;48.836;9.172;2023-02-01T11:11:54;4.30;;;2.37;;
7150;SDS011;3617;48.836;9.172;2023-02-01T11:14:20;8.23;;;2.37;;
7150;SDS011;3617;48.836;9.172;2023-02-01T11:16:47;12.47;;;2.90;;
7150;SDS011;3617;48.836;9.172;2023-02-01T11:19:15;6.10;;;2.37;;
7150;SDS011;3617;48.836;9.172;2023-02-01T11:21:41;7.77;;;2.70;;
7150;SDS011;3617;48.836;9.172;2023-02-01T11:24:12;8.33;;;2.10;;
7150;SDS011;3617;48.836;9.172;2023-02-01T11:26:43;2.93;;;2.10;;
7150;SDS011;3617;48.836;9.172;2023-02-01T11:29:10;3.93;;;1.67;;
7150;SDS011;3617;48.836;9.172;2023-02-01T11:31:38;5.07;;;2.47;;
7150;SDS011;3617;48.836;9.172;2023-02-01T11:34:10;3.03;;;1.97;;
7150;SDS011;3617;48.836;9.172;2023-02-01T11:36:37;5.17;;;2.17;;
7150;SDS011;3617;48.836;9.172;2023-02-01T11:41:42;3.13;;;2.00;;
7150;SDS011;3617;48.836;9.172;2023-02-01T11:46:53;3.13;;;2.03;;
7150;SDS011;3617;48.836;9.172;2023-02-01T11:49:20;10.83;;;2.60;;
7150;SDS011;3617;48.836;9.172;2023-02-01T11:54:39;4.43;;;2.07;;
7150;SDS011;3617;48.836;9.172;2023-02-01T11:57:11;6.77;;;2.53;;
7150;SDS011;3617;48.836;9.172;2023-02-01T12:02:10;6.93;;;2.00;;
7150;SDS011;3617;48.836;9.172;2023-02-01T12:07:18;7.03;;;1.80;;
7150;SDS011;3617;48.836;9.172;2023-02-01T12:13:10;9.57;;;2.00;;
7150;SDS011;3617;48.836;9.172;2023-02-01T12:18:34;3.77;;;1.73;;
7150;SDS011;3617;48.836;9.172;2023-02-01T12:23:44;8.73;;;2.43;;
7150;SDS011;3617;48.836;9.172;2023-02-01T12:26:20;10.10;;;2.20;;
7150;SDS011;3617;48.836;9.172;2023-02-01T12:31:30;7.23;;;2.23;;
7150;SDS011;3617;48.836;9.172;2023-02-01T12:39:23;5.90;;;2.70;;
7150;SDS011;3617;48.836;9.172;2023-02-01T12:44:48;7.23;;;2.33;;
7150;SDS011;3617;48.836;9.172;2023-02-01T12:50:05;6.10;;;2.00;;
7150;SDS011;3617;48.836;9.172;2023-02-01T12:52:39;6.30;;;2.40;;
7150;SDS011;3617;48.836;9.172;2023-02-01T12:55:16;9.20;;;2.37;;
7150;SDS011;3617;48.836;9.172;2023-02-01T12:57:45;7.27;;;2.00;;
7150;SDS011;3617;48.836;9.172;2023-02-01T13:00:20;5.00;;;2.10;;
7150;SDS011;3617;48.836;9.172;2023-02-01T13:10:21;5.13;;;2.20;;
7150;SDS011;3617;48.836;9.172;2023-02-01T13:13:32;4.77;;;2.23;;
7150;SDS011;3617;48.836;9.172;2023-02-01T13:15:43;7.37;;;2.20;;
7150;SDS011;3617;48.836;9.172;2023-02-01T13:18:13;7.43;;;2.37;;
7150;SDS011;3617;48.836;9.172;2023-02-01T13:21:14;6.83;;;2.50;;
7150;SDS011;3617;48.836;9.172;2023-02-01T13:23:36;11.50;;;2.03;;
7150;SDS011;3617;48.836;9.172;2023-02-01T13:26:03;15.87;;;3.23;;
7150;SDS011;3617;48.836;9.172;2023-02-01T13:28:39;5.70;;;2.00;;
7150;SDS011;3617;48.836;9.172;2023-02-01T13:33:49;8.97;;;2.53;;
7150;SDS011;3617;48.836;9.172;2023-02-01T13:36:23;5.07;;;2.13;;
7150;SDS011;3617;48.836;9.172;2023-02-01T13:44:11;9.23;;;2.17;;
7150;SDS011;3617;48.836;9.172;2023-02-01T13:46:39;5.30;;;2.57;;
7150;SDS011;3617;48.836;9.172;2023-02-01T13:49:05;5.43;;;2.00;;
7150;SDS011;3617;48.836;9.172;2023-02-01T13:54:03;7.97;;;2.40;;
7150;SDS011;3617;48.836;9.172;2023-02-01T13:56:38;4.60;;;2.23;;
7150;SDS011;3617;48.836;9.172;2023-02-01T13:59:35;4.30;;;2.07;;
7150;SDS011;3617;48.836;9.172;2023-02-01T14:01:51;7.40;;;1.90;;
7150;SDS011;3617;48.836;9.172;2023-02-01T14:07:01;4.50;;;1.80;;
7150;SDS011;3617;48.836;9.172;2023-02-01T14:09:32;5.93;;;1.77;;
7150;SDS011;3617;48.836;9.172;2023-02-01T14:12:41;8.07;;;1.93;;
7150;SDS011;3617;48.836;9.172;2023-02-01T14:14:45;5.00;;;2.10;;
7150;SDS011;3617;48.836;9.172;2023-02-01T14:19:37;7.80;;;2.40;;
7150;SDS011;3617;48.836;9.172;2023-02-01T14:24:49;3.50;;;1.87;;
7150;SDS011;3617;48.836;9.172;2023-02-01T14:27:18;4.47;;;1.90;;
7150;SDS011;3617;48.836;9.172;2023-02-01T14:29:59;6.83;;;2.17;;
7150;SDS011;3617;48.836;9.172;2023-02-01T14:32:29;6.63;;;2.13;;
7150;SDS011;3617;48.836;9.172;2023-02-01T14:34:57;6.90;;;2.87;;
7150;SDS011;3617;48.836;9.172;2023-02-01T14:53:03;7.60;;;1.97;;
7150;SDS011;3617;48.836;9.172;2023-02-01T14:58:00;6.00;;;2.20;;
7150;SDS011;3617;48.836;9.172;2023-02-01T15:00:29;6.83;;;2.53;;
7150;SDS011;3617;48.836;9.172;2023-02-01T15:02:56;3.83;;;1.93;;
7150;SDS011;3617;48.836;9.172;2023-02-01T15:05:31;4.20;;;2.33;;
7150;SDS011;3617;48.836;9.172;2023-02-01T15:08:00;3.40;;;1.87;;
7150;SDS011;3617;48.836;9.172;2023-02-01T15:10:29;5.27;;;2.43;;
7150;SDS011;3617;48.836;9.172;2023-02-01T15:12:56;5.87;;;2.23;;
7150;SDS011;3617;48.836;9.172;2023-02-01T15:15:23;5.57;;;2.10;;
7150;SDS011;3617;48.836;9.172;2023-02-01T15:17:53;8.53;;;2.43;;
7150;SDS011;3617;48.836;9.172;2023-02-01T15:20:24;8.70;;;2.60;;
7150;SDS011;3617;48.836;9.172;2023-02-01T15:22:54;3.27;;;1.73;;
7150;SDS011;3617;48.836;9.172;2023-02-01T15:25:21;6.30;;;2.83;;
7150;SDS011;3617;48.836;9.172;2023-02-01T15:27:47;10.57;;;2.67;;
7150;SDS011;3617;48.836;9.172;2023-02-01T15:30:18;9.67;;;1.93;;
7150;SDS011;3617;48.836;9.172;2023-02-01T15:32:45;11.30;;;2.33;;
7150;SDS011;3617;48.836;9.172;2023-02-01T15:38:17;6.40;;;2.00;;
7150;SDS011;3617;48.836;9.172;2023-02-01T15:41:15;4.97;;;1.97;;
7150;SDS011;3617;48.836;9.172;2023-02-01T15:43:44;5.87;;;1.87;;
7150;SDS011;3617;48.836;9.172;2023-02-01T15:46:13;4.07;;;2.07;;
7150;SDS011;3617;48.836;9.172;2023-02-01T15:48:47;5.80;;;2.00;;
7150;SDS011;3617;48.836;9.172;2023-02-01T15:51:16;5.53;;;2.20;;
7150;SDS011;3617;48.836;9.172;2023-02-01T15:53:50;6.83;;;2.10;;
7150;SDS011;3617;48.836;9.172;2023-02-01T15:56:20;4.23;;;2.30;;
7150;SDS011;3617;48.836;9.172;2023-02-01T15:58:48;7.23;;;2.40;;
7150;SDS011;3617;48.836;9.172;2023-02-01T16:01:16;5.27;;;2.30;;
7150;SDS011;3617;48.836;9.172;2023-02-01T16:03:43;7.50;;;2.37;;
7150;SDS011;3617;48.836;9.172;2023-02-01T16:08:51;8.53;;;1.83;;
7150;SDS011;3617;48.836;9.172;2023-02-01T16:11:27;13.50;;;1.90;;
7150;SDS011;3617;48.836;9.172;2023-02-01T16:13:55;5.53;;;2.20;;
7150;SDS011;3617;48.836;9.172;2023-02-01T16:16:21;6.70;;;2.10;;
7150;SDS011;3617;48.836;9.172;2023-02-01T16:18:47;5.27;;;1.73;;
7150;SDS011;3617;48.836;9.172;2023-02-01T16:21:13;4.87;;;2.20;;
7150;SDS011;3617;48.836;9.172;2023-02-01T16:23:39;7.20;;;2.03;;
7150;SDS011;3617;48.836;9.172;2023-02-01T16:26:05;7.70;;;2.20;;
7150;SDS011;3617;48.836;9.172;2023-02-01T16:28:32;6.43;;;1.97;;
7150;SDS011;3617;48.836;9.172;2023-02-01T16:30:58;8.40;;;2.00;;
7150;SDS011;3617;48.836;9.172;2023-02-01T16:33:25;5.10;;;1.93;;
7150;SDS011;3617;48.836;9.172;2023-02-01T16:35:52;11.10;;;2.03;;
7150;SDS011;3617;48.836;9.172;2023-02-01T16:38:18;6.60;;;1.83;;
7150;SDS011;3617;48.836;9.172;2023-02-01T16:40:47;5.23;;;2.30;;
7150;SDS011;3617;48.836;9.172;2023-02-01T16:43:14;4.33;;;2.20;;
7150;SDS011;3617;48.836;9.172;2023-02-01T16:45:41;5.57;;;2.10;;
7150;SDS011;3617;48.836;9.172;2023-02-01T16:48:10;4.83;;;2.10;;
7150;SDS011;3617;48.836;9.172;2023-02-01T16:50:41;4.00;;;2.07;;
7150;SDS011;3617;48.836;9.172;2023-02-01T16:53:08;9.03;;;2.50;;
7150;SDS011;3617;48.836;9.172;2023-02-01T16:55:36;6.47;;;2.60;;
7150;SDS011;3617;48.836;9.172;2023-02-01T16:58:02;5.97;;;2.27;;
7150;SDS011;3617;48.836;9.172;2023-02-01T17:00:28;10.30;;;2.60;;
7150;SDS011;3617;48.836;9.172;2023-02-01T17:02:55;8.10;;;2.40;;
7150;SDS011;3617;48.836;9.172;2023-02-01T17:05:22;4.03;;;2.37;;
7150;SDS011;3617;48.836;9.172;2023-02-01T17:07:48;6.10;;;2.50;;
7150;SDS011;3617;48.836;9.172;2023-02-01T17:10:18;3.73;;;2.10;;
7150;SDS011;3617;48.836;9.172;2023-02-01T17:12:47;6.20;;;2.73;;
7150;SDS011;3617;48.836;9.172;2023-02-01T17:15:13;9.03;;;2.73;;
7150;SDS011;3617;48.836;9.172;2023-02-01T17:17:39;5.47;;;2.53;;
7150;SDS011;3617;48.836;9.172;2023-02-01T17:20:09;8.53;;;2.37;;
7150;SDS011;3617;48.836;9.172;2023-02-01T17:22:43;4.60;;;2.40;;
7150;SDS011;3617;48.836;9.172;2023-02-01T17:25:16;7.40;;;2.00;;
7150;SDS011;3617;48.836;9.172;2023-02-01T17:27:42;8.53;;;1.90;;
7150;SDS011;3617;48.836;9.172;2023-02-01T17:30:09;7.27;;;2.43;;
7150;SDS011;3617;48.836;9.172;2023-02-01T17:32:35;5.70;;;2.43;;
7150;SDS011;3617;48.836;9.172;2023-02-01T17:35:03;5.83;;;2.50;;
7150;SDS011;3617;48.836;9.172;2023-02-01T17:37:31;5.53;;;2.07;;